Thunder radar more information blitzortung!


Radar de pluja more information rain snow radar


Visita la nostra xarxa de llocs de meteo:

Template documentation
and downloads

And another site



No particular awareness of the weather is required.    There are no Weather-warnings

Pagina Historial Weather Underground text

Diari Resum Marc 17, 2016 Unitats:  Mètric    Imperial   Tant
« Previous Dia
SegĂźent Dia »
Diari Setmana Mensual Anual Personalitzada
  Maxima: Minima: Media:
Temperatura: 12.1 °C 4.1 °C 9 °C
Punt de rosada: 4.8 °C 0.7 °C 3.6 °C
Humitat: 81 % 60 % 69 %
Wind Speed: 14.8 km/h 0.0 km/h 4.5 km/h
RĂ fegues de vent: 14.8 km/h - -
Vent:- - SE
Pression baro: 1021.9 hPa 1018.8 hPa -
Precipitacions: 0.0 mm    
Historical Graphs
 
 
Dades de taula per Marc 17, 2016
Temps Temperatura Punt de rosada Pression baro Vent Wind Speed RĂ fegues de vent Humitat Rainfall Rate (Hourly)
00:05 5.1 °C 1.4 °C 1019.9 hPa NE 3.2 km/h 6.4 km/h 77 % 0.0 mm
00:15 5.1 °C 1.4 °C 1019.9 hPa NNE 4.8 km/h 6.4 km/h 77 % 0.0 mm
00:25 5.0 °C 1.3 °C 1019.9 hPa NE 1.6 km/h 4.8 km/h 77 % 0.0 mm
00:35 5.1 °C 1.4 °C 1019.9 hPa NE 1.6 km/h 3.2 km/h 77 % 0.0 mm
00:45 5.0 °C 1.3 °C 1019.9 hPa NNW 3.2 km/h 3.2 km/h 77 % 0.0 mm
00:55 5.0 °C 1.3 °C 1019.9 hPa WSW 3.2 km/h 4.8 km/h 77 % 0.0 mm
01:05 4.9 °C 1.6 °C 1019.9 hPa WSW 1.6 km/h 3.2 km/h 79 % 0.0 mm
01:15 5.0 °C 1.7 °C 1019.9 hPa NE 3.2 km/h 4.8 km/h 79 % 0.0 mm
01:25 5.0 °C 1.5 °C 1019.9 hPa NE 8.0 km/h 9.7 km/h 78 % 0.0 mm
01:35 5.0 °C 1.3 °C 1018.8 hPa NE 3.2 km/h 4.8 km/h 77 % 0.0 mm
01:45 5.2 °C 1.5 °C 1019.9 hPa NNW 1.6 km/h 3.2 km/h 77 % 0.0 mm
01:55 5.4 °C 1.7 °C 1019.9 hPa WNW 1.6 km/h 3.2 km/h 77 % 0.0 mm
02:05 5.6 °C 1.9 °C 1019.9 hPa South 1.6 km/h 1.6 km/h 77 % 0.0 mm
02:15 5.7 °C 2.0 °C 1019.9 hPa Calm   1.6 km/h 77 % 0.0 mm
02:25 5.8 °C 2.1 °C 1019.9 hPa Calm   1.6 km/h 77 % 0.0 mm
02:35 5.8 °C 2.1 °C 1019.9 hPa SW 3.2 km/h 4.8 km/h 77 % 0.0 mm
02:45 6.0 °C 2.4 °C 1020.9 hPa SW 3.2 km/h 4.8 km/h 78 % 0.0 mm
02:55 6.2 °C 2.4 °C 1020.9 hPa SW 4.8 km/h 6.4 km/h 77 % 0.0 mm
03:05 6.4 °C 2.7 °C 1021.9 hPa SW 3.2 km/h 6.4 km/h 77 % 0.0 mm
03:15 6.6 °C 2.8 °C 1021.9 hPa SW 4.8 km/h 6.4 km/h 77 % 0.0 mm
03:25 6.8 °C 3.1 °C 1021.9 hPa SW 1.6 km/h 6.4 km/h 77 % 0.0 mm
03:35 7.2 °C 3.4 °C 1021.9 hPa SW 3.2 km/h 3.2 km/h 77 % 0.0 mm
03:45 7.4 °C 3.6 °C 1021.9 hPa SW 1.6 km/h 3.2 km/h 77 % 0.0 mm
03:55 7.9 °C 3.9 °C 1021.9 hPa Calm   3.2 km/h 76 % 0.0 mm
04:05 8.0 °C 3.7 °C 1021.9 hPa NE 3.2 km/h 3.2 km/h 74 % 0.0 mm
04:15 8.2 °C 3.4 °C 1021.9 hPa NE 8.0 km/h 8.0 km/h 72 % 0.0 mm
04:25 8.5 °C 3.6 °C 1021.9 hPa NE 3.2 km/h 8.0 km/h 71 % 0.0 mm
04:35 9.0 °C 3.8 °C 1021.9 hPa NE 3.2 km/h 6.4 km/h 70 % 0.0 mm
04:45 9.8 °C 4.4 °C 1021.9 hPa NE 4.8 km/h 4.8 km/h 69 % 0.0 mm
10:46 9.6 °C 3.8 °C 1021.9 hPa NNE 5.6 km/h 5.6 km/h 67 % 0.0 mm
10:51 9.7 °C 3.9 °C 1021.9 hPa NE 3.9 km/h 3.9 km/h 67 % 0.0 mm
10:56 10.0 °C 4.2 °C 1021.9 hPa ESE 9.3 km/h 9.3 km/h 67 % 0.0 mm
11:01 9.8 °C 3.7 °C 1021.9 hPa NNW 5.6 km/h 5.6 km/h 66 % 0.0 mm
11:06 9.9 °C 4.1 °C 1021.9 hPa West 3.7 km/h 3.7 km/h 67 % 0.0 mm
11:11 10.4 °C 4.3 °C 1021.9 hPa West 3.7 km/h 3.7 km/h 66 % 0.0 mm
11:16 10.6 °C 4.3 °C 1021.9 hPa NE 3.7 km/h 3.7 km/h 65 % 0.0 mm
11:21 10.4 °C 3.9 °C 1021.9 hPa NNE 9.3 km/h 9.3 km/h 64 % 0.0 mm
11:26 10.1 °C 3.6 °C 1021.9 hPa North 5.6 km/h 5.6 km/h 64 % 0.0 mm
11:31 10.6 °C 4.1 °C 1021.9 hPa NE 10.3 km/h 10.3 km/h 64 % 0.0 mm
11:36 10.5 °C 3.7 °C 1021.9 hPa North 11.1 km/h 11.1 km/h 63 % 0.0 mm
11:41 10.6 °C 3.8 °C 1020.9 hPa NE 9.3 km/h 9.3 km/h 63 % 0.0 mm
11:46 10.6 °C 3.8 °C 1020.9 hPa NNW 7.4 km/h 7.4 km/h 63 % 0.0 mm
11:51 10.9 °C 4.3 °C 1020.9 hPa ESE 4.7 km/h 4.7 km/h 64 % 0.0 mm
11:56 11.1 °C 4.3 °C 1020.9 hPa ESE 11.1 km/h 11.1 km/h 63 % 0.0 mm
12:01 11.1 °C 4.3 °C 1020.9 hPa ESE 9.0 km/h 9.0 km/h 63 % 0.0 mm
12:11 11.2 °C 4.4 °C 1020.9 hPa East 7.9 km/h 7.9 km/h 63 % 0.0 mm
12:16 11.0 °C 4.0 °C 1020.9 hPa ENE 5.6 km/h 5.6 km/h 62 % 0.0 mm
12:21 11.2 °C 4.4 °C 1020.9 hPa ENE 5.6 km/h 5.6 km/h 63 % 0.0 mm
12:26 11.1 °C 4.1 °C 1020.9 hPa ENE 7.4 km/h 7.4 km/h 62 % 0.0 mm
12:31 11.0 °C 4.2 °C 1020.9 hPa ESE 9.3 km/h 9.3 km/h 63 % 0.0 mm
12:36 10.9 °C 4.1 °C 1020.9 hPa ESE 14.8 km/h 14.8 km/h 63 % 0.0 mm
12:41 11.1 °C 4.3 °C 1020.9 hPa ESE 7.4 km/h 7.4 km/h 63 % 0.0 mm
12:46 11.1 °C 4.1 °C 1020.9 hPa NE 5.6 km/h 5.6 km/h 62 % 0.0 mm
12:51 11.0 °C 4.2 °C 1020.9 hPa East 9.0 km/h 9.0 km/h 63 % 0.0 mm
12:56 11.1 °C 4.6 °C 1021.9 hPa NNE 7.9 km/h 7.9 km/h 64 % 0.0 mm
13:01 11.0 °C 4.2 °C 1021.9 hPa NNE 9.3 km/h 9.3 km/h 63 % 0.0 mm
13:06 11.0 °C 4.2 °C 1021.9 hPa ESE 7.4 km/h 7.4 km/h 63 % 0.0 mm
13:11 11.1 °C 4.3 °C 1021.9 hPa ESE 6.9 km/h 6.9 km/h 63 % 0.0 mm
13:16 11.2 °C 4.4 °C 1021.9 hPa NNE 7.6 km/h 7.6 km/h 63 % 0.0 mm
13:21 11.0 °C 4.2 °C 1021.9 hPa East 5.6 km/h 5.6 km/h 63 % 0.0 mm
13:26 11.0 °C 4.2 °C 1021.9 hPa ENE 5.8 km/h 5.8 km/h 63 % 0.0 mm
13:31 10.8 °C 4.1 °C 1021.9 hPa NE 5.6 km/h 5.6 km/h 63 % 0.0 mm
13:36 10.7 °C 3.9 °C 1021.9 hPa NNE 7.4 km/h 7.4 km/h 63 % 0.0 mm
13:41 10.8 °C 4.1 °C 1021.9 hPa ESE 7.4 km/h 7.4 km/h 63 % 0.0 mm
13:46 10.9 °C 4.1 °C 1021.9 hPa NNE 5.6 km/h 5.6 km/h 63 % 0.0 mm
13:51 10.9 °C 4.1 °C 1021.9 hPa ENE 3.7 km/h 3.7 km/h 63 % 0.0 mm
13:56 11.3 °C 4.5 °C 1020.9 hPa NE 5.6 km/h 5.6 km/h 63 % 0.0 mm
14:01 11.2 °C 4.4 °C 1020.9 hPa East 7.4 km/h 7.4 km/h 63 % 0.0 mm
14:06 11.2 °C 4.4 °C 1020.9 hPa ESE 11.1 km/h 11.1 km/h 63 % 0.0 mm
14:11 11.1 °C 4.3 °C 1020.9 hPa SE 7.6 km/h 7.6 km/h 63 % 0.0 mm
14:16 11.0 °C 4.2 °C 1020.9 hPa East 5.6 km/h 5.6 km/h 63 % 0.0 mm
14:21 11.3 °C 4.5 °C 1020.9 hPa SE 7.4 km/h 7.4 km/h 63 % 0.0 mm
14:26 11.3 °C 4.5 °C 1019.9 hPa East 11.1 km/h 11.1 km/h 63 % 0.0 mm
14:31 11.2 °C 4.2 °C 1019.9 hPa ESE 11.1 km/h 11.1 km/h 62 % 0.0 mm
14:36 11.1 °C 4.1 °C 1019.9 hPa SSE 11.1 km/h 11.1 km/h 62 % 0.0 mm
14:41 11.1 °C 4.1 °C 1019.9 hPa South 5.6 km/h 5.6 km/h 62 % 0.0 mm
14:46 11.2 °C 4.2 °C 1019.9 hPa NE 3.7 km/h 3.7 km/h 62 % 0.0 mm
14:51 11.3 °C 4.3 °C 1019.9 hPa NE 3.9 km/h 3.9 km/h 62 % 0.0 mm
14:56 11.3 °C 4.3 °C 1019.9 hPa ESE 9.3 km/h 9.3 km/h 62 % 0.0 mm
15:01 11.3 °C 4.3 °C 1019.9 hPa ESE 4.7 km/h 4.7 km/h 62 % 0.0 mm
15:06 11.4 °C 4.2 °C 1019.9 hPa ESE 5.8 km/h 5.8 km/h 61 % 0.0 mm
15:11 11.5 °C 4.2 °C 1019.9 hPa NE 5.8 km/h 5.8 km/h 61 % 0.0 mm
15:16 11.9 °C 4.6 °C 1019.9 hPa ESE 11.9 km/h 11.9 km/h 61 % 0.0 mm
15:21 12.1 °C 4.8 °C 1019.9 hPa SSW 3.7 km/h 3.7 km/h 61 % 0.0 mm
15:26 12.1 °C 4.8 °C 1018.8 hPa ENE 5.6 km/h 5.6 km/h 61 % 0.0 mm
15:31 11.7 °C 4.2 °C 1018.8 hPa ESE 7.4 km/h 7.4 km/h 60 % 0.0 mm
15:36 11.7 °C 4.4 °C 1018.8 hPa SE 9.3 km/h 9.3 km/h 61 % 0.0 mm
15:41 11.6 °C 4.3 °C 1019.9 hPa ESE 9.5 km/h 9.5 km/h 61 % 0.0 mm
15:46 11.5 °C 4.2 °C 1019.9 hPa ENE 7.6 km/h 7.6 km/h 61 % 0.0 mm
15:51 11.4 °C 4.2 °C 1019.9 hPa ESE 13.0 km/h 13.0 km/h 61 % 0.0 mm
15:56 11.1 °C 3.8 °C 1019.9 hPa East 9.3 km/h 9.3 km/h 61 % 0.0 mm
16:01 11.1 °C 3.8 °C 1019.9 hPa ESE 10.0 km/h 10.0 km/h 61 % 0.0 mm
16:06 11.0 °C 4.0 °C 1019.9 hPa ENE 9.3 km/h 9.3 km/h 62 % 0.0 mm
16:11 10.9 °C 3.9 °C 1019.9 hPa NE 9.3 km/h 9.3 km/h 62 % 0.0 mm
16:16 10.8 °C 3.8 °C 1019.9 hPa ESE 9.5 km/h 9.5 km/h 62 % 0.0 mm
16:21 10.7 °C 3.7 °C 1019.9 hPa ESE 9.5 km/h 9.5 km/h 62 % 0.0 mm
16:26 10.7 °C 3.9 °C 1019.9 hPa NNE 9.7 km/h 9.7 km/h 63 % 0.0 mm
16:36 10.7 °C 3.9 °C 1019.9 hPa ESE 7.4 km/h 7.4 km/h 63 % 0.0 mm
16:41 10.6 °C 3.8 °C 1019.9 hPa ENE 13.0 km/h 13.0 km/h 63 % 0.0 mm
16:46 10.5 °C 3.9 °C 1019.9 hPa ESE 11.1 km/h 11.1 km/h 64 % 0.0 mm
16:51 10.5 °C 3.9 °C 1019.9 hPa East 5.6 km/h 5.8 km/h 64 % 0.0 mm
16:56 10.5 °C 3.9 °C 1019.9 hPa NNE 9.3 km/h 9.3 km/h 64 % 0.0 mm
17:01 10.5 °C 3.9 °C 1019.9 hPa ESE 7.4 km/h 7.4 km/h 64 % 0.0 mm
17:06 10.6 °C 3.8 °C 1019.9 hPa NE 6.9 km/h 6.9 km/h 63 % 0.0 mm
17:11 10.6 °C 3.8 °C 1019.9 hPa ESE 9.3 km/h 9.3 km/h 63 % 0.0 mm
17:16 10.5 °C 3.7 °C 1019.9 hPa NNE 7.4 km/h 7.4 km/h 63 % 0.0 mm
17:21 10.6 °C 3.8 °C 1019.9 hPa ESE 7.4 km/h 7.4 km/h 63 % 0.0 mm
17:26 10.7 °C 3.9 °C 1019.9 hPa ENE 9.3 km/h 9.3 km/h 63 % 0.0 mm
17:36 10.6 °C 3.8 °C 1019.9 hPa NE 9.3 km/h 9.3 km/h 63 % 0.0 mm
17:41 10.7 °C 3.9 °C 1019.9 hPa ESE 9.3 km/h 9.3 km/h 63 % 0.0 mm
17:46 10.7 °C 3.9 °C 1019.9 hPa ESE 9.3 km/h 9.3 km/h 63 % 0.0 mm
17:51 10.7 °C 4.2 °C 1019.9 hPa NNE 9.3 km/h 9.3 km/h 64 % 0.0 mm
17:56 10.8 °C 4.1 °C 1019.9 hPa ENE 7.4 km/h 7.4 km/h 63 % 0.0 mm
18:00 8.3 °C 3.9 °C 1021.9 hPa Calm     74 % 0.0 mm
18:01 10.7 °C 3.9 °C 1019.9 hPa ESE 6.4 km/h 6.4 km/h 63 % 0.0 mm
18:06 10.6 °C 3.8 °C 1019.9 hPa East 7.4 km/h 7.4 km/h 63 % 0.0 mm
18:10 8.2 °C 3.8 °C 1021.9 hPa WNW 1.6 km/h 1.6 km/h 74 % 0.0 mm
18:11 10.5 °C 3.9 °C 1019.9 hPa ENE 7.4 km/h 7.4 km/h 64 % 0.0 mm
18:16 10.4 °C 3.9 °C 1019.9 hPa ENE 5.6 km/h 5.6 km/h 64 % 0.0 mm
18:20 8.1 °C 3.9 °C 1021.9 hPa Calm   3.2 km/h 75 % 0.0 mm
18:21 10.4 °C 3.9 °C 1019.9 hPa East 5.6 km/h 5.6 km/h 64 % 0.0 mm
18:26 10.3 °C 3.8 °C 1019.9 hPa East 7.4 km/h 7.4 km/h 64 % 0.0 mm
18:30 8.0 °C 3.8 °C 1021.9 hPa Calm     75 % 0.0 mm
18:31 10.3 °C 3.8 °C 1019.9 hPa ESE 5.6 km/h 5.6 km/h 64 % 0.0 mm
18:36 10.3 °C 4.0 °C 1019.9 hPa ESE 9.3 km/h 9.3 km/h 65 % 0.0 mm
18:40 7.9 °C 3.7 °C 1021.9 hPa Calm   1.6 km/h 75 % 0.0 mm
18:41 10.2 °C 3.9 °C 1019.9 hPa ENE 5.6 km/h 5.6 km/h 65 % 0.0 mm
18:46 10.1 °C 3.8 °C 1019.9 hPa ENE 4.7 km/h 4.7 km/h 65 % 0.0 mm
18:50 7.7 °C 3.7 °C 1021.9 hPa Calm   1.6 km/h 76 % 0.0 mm
18:51 10.1 °C 3.8 °C 1019.9 hPa NE 5.6 km/h 5.6 km/h 65 % 0.0 mm
18:56 10.0 °C 3.9 °C 1019.9 hPa East 5.6 km/h 5.6 km/h 66 % 0.0 mm
19:00 7.6 °C 3.6 °C 1020.9 hPa Calm   3.2 km/h 76 % 0.0 mm
19:01 9.9 °C 3.8 °C 1019.9 hPa NNE 3.9 km/h 3.9 km/h 66 % 0.0 mm
19:06 9.8 °C 3.7 °C 1019.9 hPa ESE 5.6 km/h 5.6 km/h 66 % 0.0 mm
19:10 7.5 °C 3.6 °C 1020.9 hPa Calm   1.6 km/h 76 % 0.0 mm
19:11 9.8 °C 3.9 °C 1019.9 hPa NE 1.9 km/h   67 % 0.0 mm
19:16 9.7 °C 3.9 °C 1019.9 hPa NE 1.4 km/h   67 % 0.0 mm
19:20 7.5 °C 3.7 °C 1021.9 hPa Calm     77 % 0.0 mm
19:21 9.6 °C 3.8 °C 1019.9 hPa NNE 3.5 km/h   67 % 0.0 mm
19:26 9.4 °C 3.8 °C 1019.9 hPa NNE 4.2 km/h 4.2 km/h 68 % 0.0 mm
19:30 7.4 °C 3.4 °C 1021.9 hPa WSW 3.2 km/h 3.2 km/h 76 % 0.0 mm
19:31 9.2 °C 3.6 °C 1019.9 hPa ENE 3.7 km/h 3.7 km/h 68 % 0.0 mm
19:36 9.2 °C 3.8 °C 1019.9 hPa ENE 2.3 km/h 2.6 km/h 69 % 0.0 mm
19:40 7.5 °C 3.7 °C 1021.9 hPa West 3.2 km/h 3.2 km/h 77 % 0.0 mm
19:41 9.1 °C 3.7 °C 1019.9 hPa Calm     69 % 0.0 mm
19:50 7.5 °C 3.7 °C 1020.9 hPa NNE 1.6 km/h 3.2 km/h 77 % 0.0 mm
19:51 8.9 °C 3.5 °C 1019.9 hPa SW 2.3 km/h 2.3 km/h 69 % 0.0 mm
19:56 8.7 °C 3.3 °C 1020.9 hPa SW 3.9 km/h 3.9 km/h 69 % 0.0 mm
20:00 7.4 °C 3.8 °C 1019.9 hPa Calm     78 % 0.0 mm
20:01 8.6 °C 3.2 °C 1020.9 hPa WSW 3.7 km/h 3.7 km/h 69 % 0.0 mm
20:06 8.6 °C 3.4 °C 1020.9 hPa WSW 1.9 km/h   70 % 0.0 mm
20:10 7.3 °C 3.3 °C 1019.9 hPa NE 3.2 km/h 3.2 km/h 76 % 0.0 mm
20:11 8.6 °C 3.6 °C 1020.9 hPa WSW 2.3 km/h 2.3 km/h 71 % 0.0 mm
20:16 8.7 °C 3.7 °C 1020.9 hPa WSW 2.3 km/h 2.3 km/h 71 % 0.0 mm
20:20 7.0 °C 3.2 °C 1019.9 hPa SW 1.6 km/h 3.2 km/h 77 % 0.0 mm
20:21 8.7 °C 3.7 °C 1020.9 hPa SW 2.6 km/h 2.6 km/h 71 % 0.0 mm
20:26 8.7 °C 3.7 °C 1021.9 hPa SW 3.7 km/h 3.7 km/h 71 % 0.0 mm
20:30 7.0 °C 3.4 °C 1020.9 hPa Calm     78 % 0.0 mm
20:31 8.8 °C 3.8 °C 1021.9 hPa SW 3.7 km/h 3.7 km/h 71 % 0.0 mm
20:36 8.8 °C 3.8 °C 1021.9 hPa WSW 3.7 km/h 3.7 km/h 71 % 0.0 mm
20:40 6.9 °C 3.3 °C 1020.9 hPa SW 1.6 km/h 3.2 km/h 78 % 0.0 mm
20:41 8.8 °C 3.8 °C 1021.9 hPa Calm     71 % 0.0 mm
20:46 8.7 °C 3.7 °C 1021.9 hPa Calm     71 % 0.0 mm
20:50 6.9 °C 3.3 °C 1019.9 hPa Calm   3.2 km/h 78 % 0.0 mm
20:51 8.8 °C 3.6 °C 1021.9 hPa SW 1.9 km/h   70 % 0.0 mm
20:56 8.8 °C 3.6 °C 1021.9 hPa SW 4.2 km/h 4.2 km/h 70 % 0.0 mm
21:00 6.9 °C 3.3 °C 1019.9 hPa WSW 1.6 km/h 3.2 km/h 78 % 0.0 mm
21:01 8.7 °C 3.6 °C 1021.9 hPa WSW 3.7 km/h 3.7 km/h 70 % 0.0 mm
21:06 8.7 °C 3.7 °C 1021.9 hPa WSW 3.9 km/h 3.9 km/h 71 % 0.0 mm
21:10 6.7 °C 3.1 °C 1019.9 hPa Calm   1.6 km/h 78 % 0.0 mm
21:11 8.7 °C 3.7 °C 1021.9 hPa WSW 3.7 km/h 3.7 km/h 71 % 0.0 mm
21:16 8.7 °C 3.7 °C 1021.9 hPa WSW 2.6 km/h 2.6 km/h 71 % 0.0 mm
21:20 6.6 °C 3.1 °C 1019.9 hPa Calm     78 % 0.0 mm
21:21 8.7 °C 3.7 °C 1021.9 hPa WSW 2.3 km/h 2.3 km/h 71 % 0.0 mm
21:26 8.8 °C 3.8 °C 1021.9 hPa WSW 3.7 km/h 3.7 km/h 71 % 0.0 mm
21:30 6.4 °C 3.0 °C 1019.9 hPa Calm     79 % 0.0 mm
21:31 8.8 °C 3.8 °C 1021.9 hPa SW 3.2 km/h 3.2 km/h 71 % 0.0 mm
21:36 8.8 °C 3.8 °C 1021.9 hPa WSW 3.7 km/h 3.7 km/h 71 % 0.0 mm
21:40 6.2 °C 2.8 °C 1019.9 hPa Calm   1.6 km/h 79 % 0.0 mm
21:46 8.8 °C 3.8 °C 1021.9 hPa Calm     71 % 0.0 mm
21:50 6.1 °C 2.7 °C 1019.9 hPa SSE 1.6 km/h 1.6 km/h 79 % 0.0 mm
21:51 8.8 °C 3.8 °C 1021.9 hPa WSW 2.6 km/h 2.6 km/h 71 % 0.0 mm
21:56 8.8 °C 3.8 °C 1021.9 hPa West 1.9 km/h 1.9 km/h 71 % 0.0 mm
22:00 5.9 °C 2.6 °C 1019.9 hPa Calm     79 % 0.0 mm
22:01 8.8 °C 3.8 °C 1021.9 hPa SW 1.9 km/h   71 % 0.0 mm
22:06 8.8 °C 3.8 °C 1021.9 hPa WSW 1.9 km/h 1.9 km/h 71 % 0.0 mm
22:10 5.7 °C 2.3 °C 1019.9 hPa Calm   1.6 km/h 79 % 0.0 mm
22:11 8.8 °C 4.0 °C 1021.9 hPa WSW 2.6 km/h   72 % 0.0 mm
22:16 8.8 °C 3.8 °C 1021.9 hPa SW 3.7 km/h 3.7 km/h 71 % 0.0 mm
22:20 5.6 °C 2.4 °C 1019.9 hPa Calm   3.2 km/h 80 % 0.0 mm
22:21 8.8 °C 4.0 °C 1021.9 hPa Calm     72 % 0.0 mm
22:26 8.8 °C 4.0 °C 1021.9 hPa WSW 1.9 km/h   72 % 0.0 mm
22:30 5.0 °C 1.7 °C 1019.9 hPa Calm     79 % 0.0 mm
22:31 8.8 °C 4.0 °C 1021.9 hPa WSW 1.9 km/h 2.6 km/h 72 % 0.0 mm
22:36 8.9 °C 3.9 °C 1021.9 hPa WNW 3.7 km/h 3.7 km/h 71 % 0.0 mm
22:40 5.0 °C 1.7 °C 1019.9 hPa SE 1.6 km/h 3.2 km/h 79 % 0.0 mm
22:41 8.8 °C 3.8 °C 1021.9 hPa SW 3.7 km/h 3.7 km/h 71 % 0.0 mm
22:46 8.8 °C 4.0 °C 1021.9 hPa WSW 2.3 km/h   72 % 0.0 mm
22:50 5.0 °C 1.8 °C 1019.9 hPa NE 1.6 km/h 3.2 km/h 80 % 0.0 mm
22:51 8.8 °C 4.0 °C 1021.9 hPa WSW 1.4 km/h   72 % 0.0 mm
22:56 8.8 °C 3.8 °C 1020.9 hPa SW 3.7 km/h 3.7 km/h 71 % 0.0 mm
23:00 4.8 °C 1.7 °C 1019.9 hPa Calm   3.2 km/h 80 % 0.0 mm
23:01 8.8 °C 3.8 °C 1020.9 hPa WSW 3.7 km/h 3.7 km/h 71 % 0.0 mm
23:06 8.8 °C 4.0 °C 1020.9 hPa SW 1.9 km/h 1.9 km/h 72 % 0.0 mm
23:10 4.2 °C 0.7 °C 1019.9 hPa SW 3.2 km/h 4.8 km/h 78 % 0.0 mm
23:11 8.7 °C 4.1 °C 1021.9 hPa Calm     73 % 0.0 mm
23:16 8.7 °C 4.1 °C 1021.9 hPa Calm     73 % 0.0 mm
23:20 4.2 °C 0.9 °C 1019.9 hPa Calm   1.6 km/h 79 % 0.0 mm
23:21 8.6 °C 4.1 °C 1021.9 hPa Calm     73 % 0.0 mm
23:26 8.6 °C 4.1 °C 1021.9 hPa Calm     73 % 0.0 mm
23:30 4.2 °C 1.1 °C 1019.9 hPa SW 1.6 km/h 1.6 km/h 80 % 0.0 mm
23:31 8.6 °C 4.1 °C 1021.9 hPa Calm     73 % 0.0 mm
23:36 8.5 °C 3.9 °C 1021.9 hPa Calm     73 % 0.0 mm
23:41 8.5 °C 3.9 °C 1021.9 hPa West 1.9 km/h   73 % 0.0 mm
23:46 8.5 °C 3.9 °C 1021.9 hPa Calm     73 % 0.0 mm
23:50 4.1 °C 1.1 °C 1019.9 hPa Calm     81 % 0.0 mm
Meteo Sesrovires
Elogis d' Weather Underground - 3.75 mb

Guio original per  Jim McMurry - jmcmurry@mwt.net Adaptat per a la plantilla per  Wim van der Kuil - Leuven-Template.eu

Trobareu la nostra informacio del temps tambe a:

Weather Underground

AWEKAS